createdAt,value
2018-07-22T00:01:53.217Z,21.60
2018-07-22T00:04:22.346Z,21.60
2018-07-22T00:06:51.930Z,21.50
2018-07-22T00:09:21.502Z,21.50
2018-07-22T00:11:50.413Z,21.60
2018-07-22T00:14:20.195Z,21.50
2018-07-22T00:16:49.722Z,21.40
2018-07-22T00:19:18.998Z,21.40
2018-07-22T00:21:48.228Z,21.30
2018-07-22T00:24:17.794Z,21.30
2018-07-22T00:26:46.927Z,21.30
2018-07-22T00:29:16.501Z,21.20
2018-07-22T00:31:45.513Z,21.20
2018-07-22T00:34:14.760Z,21.30
2018-07-22T00:36:43.885Z,21.20
2018-07-22T00:39:12.995Z,21.20
2018-07-22T00:41:42.507Z,21.10
2018-07-22T00:44:12.024Z,21.10
2018-07-22T00:46:41.189Z,21.10
2018-07-22T00:49:10.474Z,21.10
2018-07-22T00:51:39.628Z,21.10
2018-07-22T00:54:08.571Z,21.00
2018-07-22T00:56:38.094Z,21.00
2018-07-22T00:59:07.232Z,21.00
2018-07-22T01:01:36.174Z,21.20
2018-07-22T01:04:05.745Z,21.20
2018-07-22T01:06:35.320Z,21.30
2018-07-22T01:09:07.551Z,21.20
2018-07-22T01:11:37.150Z,21.20
2018-07-22T01:14:06.319Z,21.20
2018-07-22T01:19:03.710Z,21.10
2018-07-22T01:21:32.918Z,21.00
2018-07-22T01:24:02.269Z,20.90
2018-07-22T01:26:31.575Z,20.70
2018-07-22T01:29:00.789Z,20.70
2018-07-22T01:31:29.915Z,20.80
2018-07-22T01:36:28.137Z,20.80
2018-07-22T01:38:57.397Z,20.70
2018-07-22T01:41:26.674Z,20.70
2018-07-22T01:43:55.938Z,20.70
2018-07-22T01:46:25.480Z,20.60
2018-07-22T01:48:54.862Z,20.50
2018-07-22T01:51:23.950Z,20.40
2018-07-22T01:53:53.447Z,20.50
2018-07-22T01:56:22.301Z,20.40
2018-07-22T01:58:52.162Z,20.40
2018-07-22T02:01:21.876Z,20.50
2018-07-22T02:03:50.938Z,20.50
2018-07-22T02:08:49.145Z,20.60
2018-07-22T02:11:18.361Z,20.60
2018-07-22T02:13:47.605Z,20.60
2018-07-22T02:18:45.869Z,20.50
2018-07-22T02:21:15.449Z,20.40
2018-07-22T02:23:44.939Z,20.30
2018-07-22T02:26:14.163Z,20.20
2018-07-22T02:28:43.357Z,20.30
2018-07-22T02:31:12.922Z,20.20
2018-07-22T02:33:42.209Z,20.30
2018-07-22T02:36:11.958Z,20.30
2018-07-22T02:38:41.519Z,20.10
2018-07-22T02:41:11.115Z,20.00
2018-07-22T02:43:40.899Z,19.90
2018-07-22T02:46:10.098Z,19.90
2018-07-22T02:48:39.406Z,20.00
2018-07-22T02:51:08.634Z,20.10
2018-07-22T02:53:37.891Z,20.10
2018-07-22T02:56:07.426Z,19.90
2018-07-22T02:58:36.373Z,19.80
2018-07-22T03:01:05.513Z,19.70
2018-07-22T03:03:34.799Z,19.70
2018-07-22T03:06:04.089Z,19.60
2018-07-22T03:08:33.644Z,19.80
2018-07-22T03:11:03.247Z,19.90
2018-07-22T03:13:32.389Z,20.10
2018-07-22T03:16:01.970Z,20.10
2018-07-22T03:18:31.155Z,20.20
2018-07-22T03:21:00.378Z,20.10
2018-07-22T03:23:29.939Z,20.00
2018-07-22T03:25:59.480Z,19.80
2018-07-22T03:28:29.054Z,19.80
2018-07-22T03:30:57.951Z,19.80
2018-07-22T03:33:27.131Z,19.80
2018-07-22T03:35:56.361Z,19.80
2018-07-22T03:38:25.592Z,20.00
2018-07-22T03:40:55.182Z,20.00
2018-07-22T03:43:24.753Z,20.00
2018-07-22T03:45:54.279Z,20.20
2018-07-22T03:48:23.510Z,20.30
2018-07-22T03:50:52.715Z,20.40
2018-07-22T03:53:22.257Z,20.40
2018-07-22T03:55:51.461Z,20.40
2018-07-22T03:58:20.706Z,20.20
2018-07-22T04:00:49.927Z,20.10
2018-07-22T04:05:48.152Z,20.30
2018-07-22T04:08:17.679Z,20.40
2018-07-22T04:10:46.556Z,20.40
2018-07-22T04:13:16.149Z,20.40
2018-07-22T04:15:45.084Z,20.40
2018-07-22T04:18:14.793Z,20.50
2018-07-22T04:20:44.310Z,20.60
2018-07-22T04:23:13.832Z,20.70
2018-07-22T04:25:43.369Z,20.70
2018-07-22T04:28:12.586Z,20.70
2018-07-22T04:30:42.142Z,20.60
2018-07-22T04:33:11.686Z,20.50
2018-07-22T04:35:41.161Z,20.50
2018-07-22T04:38:10.725Z,20.50
2018-07-22T04:40:40.350Z,20.40
2018-07-22T04:43:09.610Z,20.40
2018-07-22T04:45:38.871Z,20.40
2018-07-22T04:48:07.761Z,20.40
2018-07-22T04:50:37.023Z,20.50
2018-07-22T04:53:06.649Z,20.50
2018-07-22T04:55:36.586Z,20.60
2018-07-22T04:58:06.699Z,20.80
2018-07-22T05:00:35.949Z,20.80
2018-07-22T05:03:05.460Z,21.00
2018-07-22T05:05:35.007Z,21.20
2018-07-22T05:10:33.169Z,21.40
2018-07-22T05:13:02.710Z,21.50
2018-07-22T05:15:31.901Z,21.50
2018-07-22T05:18:01.285Z,21.60
2018-07-22T05:20:30.811Z,21.70
2018-07-22T05:22:59.762Z,21.70
2018-07-22T05:25:29.295Z,21.70
2018-07-22T05:27:58.800Z,21.80
2018-07-22T05:30:28.035Z,21.80
2018-07-22T05:32:57.226Z,21.90
2018-07-22T05:35:26.530Z,22.00
2018-07-22T05:37:56.132Z,22.10
2018-07-22T05:40:25.652Z,22.10
2018-07-22T05:42:54.843Z,22.20
2018-07-22T05:45:23.750Z,22.30
2018-07-22T05:47:53.229Z,22.40
2018-07-22T05:50:22.437Z,22.30
2018-07-22T05:52:51.964Z,22.40
2018-07-22T05:55:20.834Z,22.40
2018-07-22T05:57:50.373Z,22.50
2018-07-22T06:00:19.796Z,22.50
2018-07-22T06:02:48.727Z,22.50
2018-07-22T06:05:17.909Z,22.60
2018-07-22T06:07:47.475Z,22.70
2018-07-22T06:10:16.309Z,22.70
2018-07-22T06:12:45.846Z,22.70
2018-07-22T06:15:15.045Z,22.70
2018-07-22T06:17:44.628Z,22.90
2018-07-22T06:20:13.794Z,22.80
2018-07-22T06:22:42.985Z,22.80
2018-07-22T06:25:11.876Z,22.90
2018-07-22T06:27:41.431Z,22.90
2018-07-22T06:30:10.624Z,23.10
2018-07-22T06:32:39.797Z,23.10
2018-07-22T06:35:08.849Z,23.20
2018-07-22T06:37:37.933Z,23.20
2018-07-22T06:40:06.889Z,23.30
2018-07-22T06:42:36.457Z,23.40
2018-07-22T06:45:05.398Z,23.50
2018-07-22T06:47:35.024Z,23.80
2018-07-22T06:50:04.674Z,24.00
2018-07-22T06:52:33.921Z,24.00
2018-07-22T06:55:03.072Z,24.20
2018-07-22T06:57:32.043Z,24.30
2018-07-22T07:00:01.062Z,24.50
2018-07-22T07:02:30.858Z,24.60
2018-07-22T07:04:59.835Z,24.70
2018-07-22T07:07:28.889Z,24.90
2018-07-22T07:09:58.162Z,25.10
2018-07-22T07:12:27.320Z,25.30
2018-07-22T07:14:56.212Z,25.70
2018-07-22T07:17:25.078Z,25.90
2018-07-22T07:19:54.331Z,26.30
2018-07-22T07:22:24.334Z,26.40
2018-07-22T07:24:53.624Z,26.40
2018-07-22T07:27:22.952Z,26.30
2018-07-22T07:29:52.448Z,25.90
2018-07-22T07:32:22.094Z,25.80
2018-07-22T07:34:51.156Z,25.80
2018-07-22T07:37:20.537Z,25.80
2018-07-22T07:39:49.750Z,25.90
2018-07-22T07:42:18.693Z,26.00
2018-07-22T07:44:48.594Z,26.20
2018-07-22T07:47:17.810Z,26.90
2018-07-22T07:49:47.485Z,27.50
2018-07-22T07:52:16.779Z,27.70
2018-07-22T07:54:46.369Z,27.90
2018-07-22T07:57:15.986Z,28.50
2018-07-22T07:59:45.539Z,28.80
2018-07-22T08:02:14.685Z,28.30
2018-07-22T08:04:44.473Z,28.10
2018-07-22T08:07:13.417Z,28.00
2018-07-22T08:09:42.365Z,28.00
2018-07-22T08:12:11.283Z,28.20
2018-07-22T08:14:40.237Z,28.40
2018-07-22T08:17:09.878Z,28.10
2018-07-22T08:19:38.689Z,27.80
2018-07-22T08:22:07.907Z,27.90
2018-07-22T08:24:37.671Z,28.10
2018-07-22T08:27:07.016Z,28.50
2018-07-22T08:29:36.510Z,28.60
2018-07-22T08:32:06.200Z,28.70
2018-07-22T08:34:35.382Z,28.60
2018-07-22T08:37:04.384Z,29.00
2018-07-22T08:39:33.929Z,29.40
2018-07-22T08:42:03.129Z,29.40
2018-07-22T08:44:32.040Z,29.90
2018-07-22T08:47:01.225Z,29.70
2018-07-22T08:49:31.139Z,30.40
2018-07-22T08:52:00.388Z,30.90
2018-07-22T08:54:29.921Z,31.10
2018-07-22T08:56:58.823Z,31.50
2018-07-22T08:59:27.724Z,31.50
2018-07-22T09:01:56.938Z,31.40
2018-07-22T09:04:26.656Z,31.50
2018-07-22T09:06:55.830Z,32.10
2018-07-22T09:09:25.002Z,31.80
2018-07-22T09:11:54.186Z,31.90
2018-07-22T09:14:23.381Z,31.60
2018-07-22T09:16:52.667Z,32.10
2018-07-22T09:19:21.964Z,32.50
2018-07-22T09:21:51.531Z,32.90
2018-07-22T09:24:21.300Z,32.70
2018-07-22T09:26:51.134Z,32.80
2018-07-22T09:29:20.354Z,31.80
2018-07-22T09:31:49.880Z,31.90
2018-07-22T09:34:19.389Z,31.90
2018-07-22T09:36:48.630Z,32.50
2018-07-22T09:39:18.186Z,33.40
2018-07-22T09:41:47.412Z,33.90
2018-07-22T09:44:17.066Z,33.70
2018-07-22T09:46:46.672Z,33.40
2018-07-22T09:49:16.259Z,33.10
2018-07-22T09:51:45.795Z,32.90
2018-07-22T09:54:15.294Z,32.80
2018-07-22T09:56:44.170Z,32.70
2018-07-22T09:59:13.683Z,32.60
2018-07-22T10:01:43.331Z,32.30
2018-07-22T10:04:12.833Z,31.60
2018-07-22T10:06:42.370Z,31.80
2018-07-22T10:09:11.912Z,32.20
2018-07-22T10:11:41.070Z,31.80
2018-07-22T10:14:10.280Z,32.80
2018-07-22T10:16:39.579Z,33.10
2018-07-22T10:19:09.190Z,32.60
2018-07-22T10:21:38.424Z,33.10
2018-07-22T10:24:07.666Z,33.60
2018-07-22T10:26:37.420Z,33.40
2018-07-22T10:29:07.003Z,33.00
2018-07-22T10:31:36.575Z,32.70
2018-07-22T10:34:05.446Z,31.80
2018-07-22T10:36:34.962Z,31.80
2018-07-22T10:39:06.302Z,32.10
2018-07-22T10:41:35.777Z,32.20
2018-07-22T10:44:05.129Z,32.70
2018-07-22T10:46:34.358Z,32.90
2018-07-22T10:49:03.995Z,33.60
2018-07-22T10:51:32.879Z,33.40
2018-07-22T10:54:02.070Z,32.80
2018-07-22T10:56:31.621Z,32.60
2018-07-22T10:59:01.029Z,31.90
2018-07-22T11:01:30.230Z,31.60
2018-07-22T11:03:59.221Z,31.70
2018-07-22T11:06:28.463Z,31.50
2018-07-22T11:08:57.414Z,31.10
2018-07-22T11:11:26.920Z,31.40
2018-07-22T11:13:56.219Z,31.50
2018-07-22T11:16:25.479Z,31.60
2018-07-22T11:18:55.116Z,32.40
2018-07-22T11:21:24.875Z,33.00
2018-07-22T11:23:54.185Z,33.00
2018-07-22T11:26:23.040Z,33.40
2018-07-22T11:28:52.327Z,33.70
2018-07-22T11:31:22.155Z,33.90
2018-07-22T11:33:51.661Z,34.00
2018-07-22T11:36:20.588Z,34.20
2018-07-22T11:38:50.436Z,34.90
2018-07-22T11:41:20.004Z,34.40
2018-07-22T11:43:49.259Z,35.00
2018-07-22T11:46:19.152Z,35.20
2018-07-22T11:48:48.409Z,35.20
2018-07-22T11:51:17.667Z,34.70
2018-07-22T11:53:46.939Z,34.30
2018-07-22T11:56:16.565Z,33.80
2018-07-22T11:58:45.770Z,33.50
2018-07-22T12:01:15.382Z,32.30
2018-07-22T12:03:44.587Z,32.60
2018-07-22T12:06:13.843Z,32.40
2018-07-22T12:08:43.823Z,32.10
2018-07-22T12:11:13.393Z,32.40
2018-07-22T12:13:42.984Z,32.20
2018-07-22T12:16:12.551Z,31.50
2018-07-22T12:18:42.193Z,31.40
2018-07-22T12:21:11.041Z,31.00
2018-07-22T12:23:40.778Z,30.80
2018-07-22T12:26:10.044Z,30.80
2018-07-22T12:28:39.651Z,30.80
2018-07-22T12:31:08.526Z,30.90
2018-07-22T12:33:37.836Z,31.10
2018-07-22T12:36:08.104Z,31.50
2018-07-22T12:38:37.400Z,31.50
2018-07-22T12:41:06.665Z,31.40
2018-07-22T12:43:36.186Z,31.30
2018-07-22T12:46:05.579Z,31.80
2018-07-22T12:48:35.356Z,31.90
2018-07-22T12:51:04.608Z,32.10
2018-07-22T12:53:34.054Z,32.10
2018-07-22T12:56:03.336Z,32.00
2018-07-22T12:58:32.373Z,32.00
2018-07-22T13:01:01.935Z,31.90
2018-07-22T13:03:31.538Z,31.90
2018-07-22T13:06:00.782Z,31.40
2018-07-22T13:08:29.966Z,31.50
2018-07-22T13:10:58.931Z,31.10
2018-07-22T13:13:28.556Z,30.60
2018-07-22T13:15:57.485Z,30.50
2018-07-22T13:18:26.962Z,30.30
2018-07-22T13:20:56.303Z,30.10
2018-07-22T13:23:25.693Z,29.60
2018-07-22T13:25:54.862Z,29.50
2018-07-22T13:28:24.380Z,29.60
2018-07-22T13:30:53.314Z,29.70
2018-07-22T13:33:22.535Z,29.70
2018-07-22T13:35:51.819Z,29.70
2018-07-22T13:38:21.506Z,29.70
2018-07-22T13:40:51.343Z,29.60
2018-07-22T13:43:20.561Z,29.40
2018-07-22T13:45:50.490Z,29.30
2018-07-22T13:48:20.037Z,29.60
2018-07-22T13:50:49.686Z,29.90
2018-07-22T13:53:19.146Z,30.20
2018-07-22T13:55:48.401Z,30.70
2018-07-22T13:58:17.774Z,31.80
2018-07-22T14:03:16.210Z,33.70
2018-07-22T14:05:45.421Z,34.70
2018-07-22T14:08:14.863Z,35.50
2018-07-22T14:10:44.279Z,35.90
2018-07-22T14:15:42.673Z,34.80
2018-07-22T14:18:11.756Z,34.20
2018-07-22T14:20:41.167Z,34.00
2018-07-22T14:23:10.460Z,34.20
2018-07-22T14:25:39.914Z,34.40
2018-07-22T14:28:09.694Z,34.00
2018-07-22T14:30:39.281Z,33.40
2018-07-22T14:33:09.027Z,32.90
2018-07-22T14:35:38.596Z,32.20
2018-07-22T14:38:07.695Z,31.80
2018-07-22T14:40:37.036Z,31.60
2018-07-22T14:43:06.537Z,31.80
2018-07-22T14:45:36.038Z,31.20
2018-07-22T14:48:06.777Z,31.30
2018-07-22T14:50:36.318Z,30.80
2018-07-22T14:53:07.513Z,30.70
2018-07-22T14:55:36.532Z,30.90
2018-07-22T14:58:06.240Z,30.80
2018-07-22T15:00:35.787Z,30.40
2018-07-22T15:03:05.357Z,30.20
2018-07-22T15:05:34.972Z,30.30
2018-07-22T15:08:03.973Z,30.30
2018-07-22T15:10:34.282Z,30.40
2018-07-22T15:13:03.688Z,30.50
2018-07-22T15:15:33.375Z,30.10
2018-07-22T15:18:02.618Z,29.80
2018-07-22T15:20:32.354Z,29.60
2018-07-22T15:23:01.943Z,29.70
2018-07-22T15:25:31.541Z,29.90
2018-07-22T15:30:30.897Z,29.60
2018-07-22T15:33:00.229Z,29.60
2018-07-22T15:35:32.120Z,29.50
2018-07-22T15:38:01.471Z,29.50
2018-07-22T15:40:31.206Z,29.40
2018-07-22T15:43:01.735Z,29.20
2018-07-22T15:45:34.146Z,29.20
2018-07-22T15:48:05.630Z,29.10
2018-07-22T15:50:35.456Z,29.10
2018-07-22T15:53:06.545Z,29.00
2018-07-22T15:55:35.960Z,28.80
2018-07-22T15:58:05.187Z,28.80
2018-07-22T16:00:34.758Z,28.70
2018-07-22T16:03:04.533Z,28.60
2018-07-22T16:05:34.006Z,28.50
2018-07-22T16:08:03.282Z,28.60
2018-07-22T16:10:32.838Z,28.60
2018-07-22T16:13:02.054Z,28.60
2018-07-22T16:15:31.202Z,28.70
2018-07-22T16:18:00.745Z,28.60
2018-07-22T16:20:30.017Z,28.60
2018-07-22T16:22:59.562Z,28.70
2018-07-22T16:25:28.753Z,28.70
2018-07-22T16:27:58.339Z,28.70
2018-07-22T16:30:27.839Z,28.50
2018-07-22T16:32:57.375Z,28.60
2018-07-22T16:35:26.905Z,28.80
2018-07-22T16:37:56.434Z,28.80
2018-07-22T16:40:26.283Z,29.00
2018-07-22T16:42:55.182Z,29.00
2018-07-22T16:45:24.693Z,29.00
2018-07-22T16:47:53.935Z,28.90
2018-07-22T16:50:23.519Z,28.80
2018-07-22T16:52:53.009Z,28.60
2018-07-22T16:55:22.122Z,28.50
2018-07-22T16:57:51.443Z,28.30
2018-07-22T17:00:20.416Z,28.20
2018-07-22T17:02:49.380Z,28.30
2018-07-22T17:05:19.132Z,28.40
2018-07-22T17:07:49.879Z,28.40
2018-07-22T17:10:19.108Z,28.20
2018-07-22T17:12:48.842Z,28.30
2018-07-22T17:15:18.383Z,28.30
2018-07-22T17:17:47.945Z,28.20
2018-07-22T17:20:17.153Z,28.10
2018-07-22T17:22:46.825Z,28.10
2018-07-22T17:25:16.013Z,28.10
2018-07-22T17:27:45.140Z,28.00
2018-07-22T17:30:14.934Z,28.00
2018-07-22T17:32:44.166Z,27.90
2018-07-22T17:35:14.592Z,27.80
2018-07-22T17:37:43.491Z,27.70
2018-07-22T17:40:13.063Z,27.60
2018-07-22T17:42:42.325Z,27.60
2018-07-22T17:45:11.539Z,27.50
2018-07-22T17:47:41.094Z,27.60
2018-07-22T17:50:10.294Z,27.50
2018-07-22T17:52:39.113Z,27.50
2018-07-22T17:57:37.201Z,27.50
2018-07-22T18:00:07.513Z,27.50
2018-07-22T18:02:36.569Z,27.50
2018-07-22T18:05:05.608Z,27.40
2018-07-22T18:07:35.402Z,27.30
2018-07-22T18:10:04.493Z,27.30
2018-07-22T18:12:35.142Z,27.30
2018-07-22T18:15:04.723Z,27.30
2018-07-22T18:17:34.607Z,27.20
2018-07-22T18:20:06.847Z,27.20
2018-07-22T18:22:38.085Z,27.20
2018-07-22T18:25:08.004Z,27.10
2018-07-22T18:27:37.764Z,27.10
2018-07-22T18:30:07.320Z,27.00
2018-07-22T18:32:37.865Z,27.00
2018-07-22T18:35:09.755Z,26.90
2018-07-22T18:40:13.745Z,26.80
2018-07-22T18:42:44.676Z,26.80
2018-07-22T18:47:44.243Z,26.60
2018-07-22T18:50:14.839Z,26.50
2018-07-22T18:52:46.578Z,26.50
2018-07-22T18:55:16.007Z,26.40
2018-07-22T18:57:45.921Z,26.40
2018-07-22T19:00:15.723Z,26.30
2018-07-22T19:02:44.852Z,26.20
2018-07-22T19:05:14.334Z,26.10
2018-07-22T19:07:44.181Z,26.10
2018-07-22T19:10:13.869Z,26.10
2018-07-22T19:12:43.399Z,26.00
2018-07-22T19:15:13.151Z,26.00
2018-07-22T19:17:42.651Z,26.00
2018-07-22T19:20:12.050Z,25.90
2018-07-22T19:22:41.567Z,25.90
2018-07-22T19:25:11.155Z,25.90
2018-07-22T19:27:40.786Z,25.90
2018-07-22T19:30:10.614Z,25.80
2018-07-22T19:32:40.433Z,25.80
2018-07-22T19:35:10.361Z,25.80
2018-07-22T19:37:39.902Z,25.80
2018-07-22T19:40:09.218Z,25.60
2018-07-22T19:42:39.251Z,25.60
2018-07-22T19:45:08.754Z,25.50
2018-07-22T19:47:38.214Z,25.40
2018-07-22T19:50:07.383Z,25.30
2018-07-22T19:52:37.224Z,25.30
2018-07-22T19:55:06.410Z,25.20
2018-07-22T19:57:35.622Z,25.10
2018-07-22T20:00:05.463Z,25.00
2018-07-22T20:02:34.654Z,25.00
2018-07-22T20:05:04.844Z,24.90
2018-07-22T20:10:03.353Z,24.80
2018-07-22T20:12:33.246Z,24.80
2018-07-22T20:15:03.405Z,24.70
2018-07-22T20:17:33.134Z,24.60
2018-07-22T20:20:02.416Z,24.60
2018-07-22T20:22:32.379Z,24.50
2018-07-22T20:25:01.919Z,24.50
2018-07-22T20:27:31.191Z,24.40
2018-07-22T20:30:00.839Z,24.40
2018-07-22T20:32:31.016Z,24.30
2018-07-22T20:35:01.036Z,24.30
2018-07-22T20:37:30.983Z,24.30
2018-07-22T20:40:00.466Z,24.20
2018-07-22T20:42:31.555Z,24.20
2018-07-22T20:45:01.127Z,24.10
2018-07-22T20:47:30.889Z,24.10
2018-07-22T20:50:00.764Z,24.00
2018-07-22T20:52:30.407Z,24.00
2018-07-22T20:55:00.236Z,24.00
2018-07-22T20:57:29.694Z,24.00
2018-07-22T20:59:59.525Z,23.90
2018-07-22T21:02:28.861Z,23.90
2018-07-22T21:04:58.315Z,23.80
2018-07-22T21:07:28.128Z,23.80
2018-07-22T21:09:57.925Z,23.70
2018-07-22T21:12:48.783Z,23.60
2018-07-22T21:15:18.431Z,23.60
2018-07-22T21:17:49.462Z,23.50
2018-07-22T21:20:19.688Z,23.50
2018-07-22T21:22:49.370Z,23.50
2018-07-22T21:25:19.212Z,23.50
2018-07-22T21:27:48.797Z,23.40
2018-07-22T21:32:47.215Z,23.40
2018-07-22T21:35:16.699Z,23.30
2018-07-22T21:37:46.510Z,23.30
2018-07-22T21:40:16.072Z,23.20
2018-07-22T21:42:46.013Z,23.20
2018-07-22T21:45:15.483Z,23.10
2018-07-22T21:47:44.987Z,23.20
2018-07-22T21:50:14.184Z,23.10
2018-07-22T21:52:43.740Z,23.00
2018-07-22T21:55:13.196Z,23.00
2018-07-22T21:57:42.750Z,23.00
2018-07-22T22:00:27.382Z,23.00
2018-07-22T22:02:56.597Z,22.90
2018-07-22T22:05:26.926Z,22.90
2018-07-22T22:07:56.810Z,22.90
2018-07-22T22:10:26.876Z,22.90
2018-07-22T22:12:56.848Z,22.90
2018-07-22T22:15:27.534Z,22.80
2018-07-22T22:17:57.681Z,22.80
2018-07-22T22:20:27.878Z,22.70
2018-07-22T22:22:57.471Z,22.70
2018-07-22T22:25:27.002Z,22.70
2018-07-22T22:27:56.111Z,22.70
2018-07-22T22:30:25.451Z,22.70
2018-07-22T22:32:55.077Z,22.60
2018-07-22T22:35:24.252Z,22.60
2018-07-22T22:37:53.820Z,22.60
2018-07-22T22:40:23.245Z,22.60
2018-07-22T22:42:52.614Z,22.60
2018-07-22T22:45:22.041Z,22.60
2018-07-22T22:47:51.430Z,22.60
2018-07-22T22:50:21.038Z,22.60
2018-07-22T22:55:19.690Z,22.60
2018-07-22T22:58:00.876Z,22.60
2018-07-22T23:00:30.205Z,22.60
2018-07-22T23:03:00.047Z,22.50
2018-07-22T23:05:29.599Z,22.50
2018-07-22T23:07:59.289Z,22.40
2018-07-22T23:10:29.060Z,22.40
2018-07-22T23:12:58.894Z,22.40
2018-07-22T23:15:28.212Z,22.40
2018-07-22T23:17:57.494Z,22.30
2018-07-22T23:20:26.993Z,22.30
2018-07-22T23:22:56.733Z,22.30
2018-07-22T23:25:26.877Z,22.20
2018-07-22T23:27:56.795Z,22.20
2018-07-22T23:30:26.695Z,22.20
2018-07-22T23:32:56.247Z,22.20
2018-07-22T23:35:26.160Z,22.10
2018-07-22T23:37:55.784Z,22.20
2018-07-22T23:40:24.986Z,22.20
2018-07-22T23:45:23.712Z,22.10
2018-07-22T23:47:53.253Z,22.10
2018-07-22T23:50:23.137Z,22.00
2018-07-22T23:52:52.606Z,22.00
2018-07-22T23:57:51.663Z,21.90
